EGPK - Prestwick Airport
Distance from station: E 5mi, 14km
Updated: 12/14/2017 4:50am
Nearby showers, Partly cloudy
Nearby showers, Partly cloudy
 Wind from NNW
Wind: NNW 13 mph , 20 km/h
Temperature: 39°F , 4°C
Wind Chill: 31°F , -1°C
Dew Point: 37°F , 3°C
Humidity: 93%
Barometer: 28.94 inHg , 980 hPa
Summary: Nearby Showers
Clouds: Partly Cloudy
Visibility: 6 miles , 10 km
Cloud details: Few Clouds 1000 ft
Few Clouds 1500 ft
Partly Cloudy 2000 ft
2017/12/14 12:50 EGPK 141250Z 33011KT 9999 VCSH FEW010 FEW015CB SCT020 04/03 Q0980